sensor_id;sensor_type;location;lat;lon;timestamp;P1;durP1;ratioP1;P2;durP2;ratioP2
77466;SDS011;66564;42.482;25.548;2023-03-23T00:01:00;30.50;;;15.18;;
77466;SDS011;66564;42.482;25.548;2023-03-23T00:03:26;32.92;;;15.73;;
77466;SDS011;66564;42.482;25.548;2023-03-23T00:05:53;28.60;;;15.48;;
77466;SDS011;66564;42.482;25.548;2023-03-23T00:08:27;28.92;;;14.82;;
77466;SDS011;66564;42.482;25.548;2023-03-23T00:10:53;30.35;;;15.38;;
77466;SDS011;66564;42.482;25.548;2023-03-23T00:13:22;28.77;;;14.68;;
77466;SDS011;66564;42.482;25.548;2023-03-23T00:15:48;28.23;;;15.32;;
77466;SDS011;66564;42.482;25.548;2023-03-23T00:18:15;29.17;;;15.05;;
77466;SDS011;66564;42.482;25.548;2023-03-23T00:20:56;29.42;;;14.55;;
77466;SDS011;66564;42.482;25.548;2023-03-23T00:23:23;31.98;;;16.02;;
77466;SDS011;66564;42.482;25.548;2023-03-23T00:25:53;31.60;;;16.35;;
77466;SDS011;66564;42.482;25.548;2023-03-23T00:28:23;29.38;;;14.93;;
77466;SDS011;66564;42.482;25.548;2023-03-23T00:30:59;27.23;;;14.43;;
77466;SDS011;66564;42.482;25.548;2023-03-23T00:33:29;30.73;;;15.82;;
77466;SDS011;66564;42.482;25.548;2023-03-23T00:35:58;30.20;;;14.63;;
77466;SDS011;66564;42.482;25.548;2023-03-23T00:38:27;26.65;;;14.52;;
77466;SDS011;66564;42.482;25.548;2023-03-23T00:40:53;29.05;;;14.77;;
77466;SDS011;66564;42.482;25.548;2023-03-23T00:43:19;35.97;;;15.45;;
77466;SDS011;66564;42.482;25.548;2023-03-23T00:45:45;28.38;;;14.85;;
77466;SDS011;66564;42.482;25.548;2023-03-23T00:48:18;27.83;;;13.25;;
77466;SDS011;66564;42.482;25.548;2023-03-23T00:50:48;28.75;;;14.90;;
77466;SDS011;66564;42.482;25.548;2023-03-23T00:53:15;29.05;;;13.95;;
77466;SDS011;66564;42.482;25.548;2023-03-23T00:55:41;28.15;;;12.70;;
77466;SDS011;66564;42.482;25.548;2023-03-23T00:58:08;47.75;;;14.45;;
77466;SDS011;66564;42.482;25.548;2023-03-23T01:00:34;26.55;;;13.68;;
77466;SDS011;66564;42.482;25.548;2023-03-23T01:03:00;23.73;;;12.93;;
77466;SDS011;66564;42.482;25.548;2023-03-23T01:05:29;28.02;;;14.18;;
77466;SDS011;66564;42.482;25.548;2023-03-23T01:07:58;25.45;;;14.07;;
77466;SDS011;66564;42.482;25.548;2023-03-23T01:10:24;23.30;;;13.68;;
77466;SDS011;66564;42.482;25.548;2023-03-23T01:12:51;27.25;;;14.35;;
77466;SDS011;66564;42.482;25.548;2023-03-23T01:15:18;27.50;;;14.45;;
77466;SDS011;66564;42.482;25.548;2023-03-23T01:17:45;23.45;;;11.90;;
77466;SDS011;66564;42.482;25.548;2023-03-23T01:20:11;28.90;;;12.60;;
77466;SDS011;66564;42.482;25.548;2023-03-23T01:22:39;25.90;;;12.80;;
77466;SDS011;66564;42.482;25.548;2023-03-23T01:25:06;28.05;;;13.63;;
77466;SDS011;66564;42.482;25.548;2023-03-23T01:27:32;23.70;;;13.45;;
77466;SDS011;66564;42.482;25.548;2023-03-23T01:29:57;24.02;;;13.45;;
77466;SDS011;66564;42.482;25.548;2023-03-23T01:32:23;22.58;;;12.95;;
77466;SDS011;66564;42.482;25.548;2023-03-23T01:34:49;21.42;;;12.18;;
77466;SDS011;66564;42.482;25.548;2023-03-23T01:37:14;21.67;;;12.65;;
77466;SDS011;66564;42.482;25.548;2023-03-23T01:39:41;21.70;;;11.80;;
77466;SDS011;66564;42.482;25.548;2023-03-23T01:42:08;20.30;;;11.02;;
77466;SDS011;66564;42.482;25.548;2023-03-23T01:47:00;18.25;;;10.88;;
77466;SDS011;66564;42.482;25.548;2023-03-23T01:49:59;18.42;;;12.13;;
77466;SDS011;66564;42.482;25.548;2023-03-23T01:52:25;25.75;;;12.95;;
77466;SDS011;66564;42.482;25.548;2023-03-23T01:54:54;28.77;;;15.00;;
77466;SDS011;66564;42.482;25.548;2023-03-23T01:57:22;29.38;;;15.20;;
77466;SDS011;66564;42.482;25.548;2023-03-23T01:59:52;31.60;;;14.80;;
77466;SDS011;66564;42.482;25.548;2023-03-23T02:02:21;30.33;;;15.02;;
77466;SDS011;66564;42.482;25.548;2023-03-23T02:04:48;26.25;;;13.88;;
77466;SDS011;66564;42.482;25.548;2023-03-23T02:07:15;26.45;;;14.48;;
77466;SDS011;66564;42.482;25.548;2023-03-23T02:09:43;23.23;;;13.10;;
77466;SDS011;66564;42.482;25.548;2023-03-23T02:12:08;21.30;;;13.13;;
77466;SDS011;66564;42.482;25.548;2023-03-23T02:14:34;18.30;;;10.85;;
77466;SDS011;66564;42.482;25.548;2023-03-23T02:19:38;19.23;;;10.23;;
77466;SDS011;66564;42.482;25.548;2023-03-23T02:31:01;16.95;;;9.80;;
77466;SDS011;66564;42.482;25.548;2023-03-23T02:42:04;16.73;;;9.23;;
77466;SDS011;66564;42.482;25.548;2023-03-23T02:44:33;15.23;;;8.70;;
77466;SDS011;66564;42.482;25.548;2023-03-23T02:47:02;24.17;;;11.90;;
77466;SDS011;66564;42.482;25.548;2023-03-23T02:51:58;25.73;;;13.98;;
77466;SDS011;66564;42.482;25.548;2023-03-23T02:54:24;22.85;;;12.43;;
77466;SDS011;66564;42.482;25.548;2023-03-23T02:56:52;25.67;;;12.80;;
77466;SDS011;66564;42.482;25.548;2023-03-23T02:59:19;18.02;;;10.45;;
77466;SDS011;66564;42.482;25.548;2023-03-23T03:01:47;15.70;;;9.10;;
77466;SDS011;66564;42.482;25.548;2023-03-23T03:04:17;14.55;;;8.63;;
77466;SDS011;66564;42.482;25.548;2023-03-23T03:11:54;16.70;;;9.13;;
77466;SDS011;66564;42.482;25.548;2023-03-23T03:14:48;14.75;;;9.48;;
77466;SDS011;66564;42.482;25.548;2023-03-23T03:17:20;16.00;;;8.90;;
77466;SDS011;66564;42.482;25.548;2023-03-23T03:19:49;15.75;;;7.93;;
77466;SDS011;66564;42.482;25.548;2023-03-23T03:22:17;17.83;;;10.25;;
77466;SDS011;66564;42.482;25.548;2023-03-23T03:24:45;17.58;;;9.30;;
77466;SDS011;66564;42.482;25.548;2023-03-23T03:27:21;17.58;;;9.68;;
77466;SDS011;66564;42.482;25.548;2023-03-23T03:29:49;16.15;;;10.57;;
77466;SDS011;66564;42.482;25.548;2023-03-23T03:32:21;15.40;;;9.35;;
77466;SDS011;66564;42.482;25.548;2023-03-23T03:34:50;15.82;;;8.85;;
77466;SDS011;66564;42.482;25.548;2023-03-23T03:37:15;15.48;;;9.73;;
77466;SDS011;66564;42.482;25.548;2023-03-23T03:39:42;14.32;;;8.60;;
77466;SDS011;66564;42.482;25.548;2023-03-23T03:42:07;15.98;;;8.95;;
77466;SDS011;66564;42.482;25.548;2023-03-23T03:44:33;17.50;;;9.50;;
77466;SDS011;66564;42.482;25.548;2023-03-23T03:46:59;15.95;;;8.98;;
77466;SDS011;66564;42.482;25.548;2023-03-23T03:49:25;16.75;;;9.32;;
77466;SDS011;66564;42.482;25.548;2023-03-23T03:51:51;18.00;;;9.80;;
77466;SDS011;66564;42.482;25.548;2023-03-23T03:54:16;16.80;;;8.68;;
77466;SDS011;66564;42.482;25.548;2023-03-23T03:56:42;16.27;;;9.27;;
77466;SDS011;66564;42.482;25.548;2023-03-23T03:59:08;15.50;;;8.88;;
77466;SDS011;66564;42.482;25.548;2023-03-23T04:01:35;13.65;;;8.55;;
77466;SDS011;66564;42.482;25.548;2023-03-23T04:04:01;15.93;;;8.32;;
77466;SDS011;66564;42.482;25.548;2023-03-23T04:06:27;14.48;;;9.23;;
77466;SDS011;66564;42.482;25.548;2023-03-23T04:08:56;15.55;;;9.90;;
77466;SDS011;66564;42.482;25.548;2023-03-23T04:11:24;13.98;;;9.55;;
77466;SDS011;66564;42.482;25.548;2023-03-23T04:13:50;14.88;;;8.32;;
77466;SDS011;66564;42.482;25.548;2023-03-23T04:16:16;16.88;;;9.38;;
77466;SDS011;66564;42.482;25.548;2023-03-23T04:18:42;12.88;;;8.32;;
77466;SDS011;66564;42.482;25.548;2023-03-23T04:21:08;13.30;;;9.00;;
77466;SDS011;66564;42.482;25.548;2023-03-23T04:23:34;15.10;;;8.90;;
77466;SDS011;66564;42.482;25.548;2023-03-23T04:26:01;15.50;;;9.55;;
77466;SDS011;66564;42.482;25.548;2023-03-23T04:28:28;16.45;;;9.45;;
77466;SDS011;66564;42.482;25.548;2023-03-23T04:30:54;15.60;;;9.50;;
77466;SDS011;66564;42.482;25.548;2023-03-23T04:33:21;18.48;;;10.10;;
77466;SDS011;66564;42.482;25.548;2023-03-23T04:35:50;18.02;;;9.80;;
77466;SDS011;66564;42.482;25.548;2023-03-23T04:38:17;15.73;;;9.25;;
77466;SDS011;66564;42.482;25.548;2023-03-23T04:40:45;18.92;;;10.07;;
77466;SDS011;66564;42.482;25.548;2023-03-23T04:43:12;16.38;;;9.73;;
77466;SDS011;66564;42.482;25.548;2023-03-23T04:45:38;16.90;;;10.52;;
77466;SDS011;66564;42.482;25.548;2023-03-23T04:48:06;18.05;;;10.00;;
77466;SDS011;66564;42.482;25.548;2023-03-23T04:50:33;13.98;;;8.35;;
77466;SDS011;66564;42.482;25.548;2023-03-23T04:53:00;14.25;;;8.20;;
77466;SDS011;66564;42.482;25.548;2023-03-23T04:55:30;16.15;;;8.95;;
77466;SDS011;66564;42.482;25.548;2023-03-23T04:58:01;16.02;;;9.43;;
77466;SDS011;66564;42.482;25.548;2023-03-23T05:00:27;12.50;;;8.48;;
77466;SDS011;66564;42.482;25.548;2023-03-23T05:02:54;15.40;;;9.02;;
77466;SDS011;66564;42.482;25.548;2023-03-23T05:05:20;14.65;;;8.77;;
77466;SDS011;66564;42.482;25.548;2023-03-23T05:07:47;12.60;;;8.50;;
77466;SDS011;66564;42.482;25.548;2023-03-23T05:10:12;14.10;;;8.23;;
77466;SDS011;66564;42.482;25.548;2023-03-23T05:12:39;11.32;;;6.75;;
77466;SDS011;66564;42.482;25.548;2023-03-23T05:15:05;10.77;;;6.57;;
77466;SDS011;66564;42.482;25.548;2023-03-23T05:17:32;10.60;;;6.38;;
77466;SDS011;66564;42.482;25.548;2023-03-23T05:19:58;11.25;;;6.43;;
77466;SDS011;66564;42.482;25.548;2023-03-23T05:22:27;11.30;;;6.40;;
77466;SDS011;66564;42.482;25.548;2023-03-23T05:24:53;11.05;;;6.68;;
77466;SDS011;66564;42.482;25.548;2023-03-23T05:27:19;9.10;;;6.25;;
77466;SDS011;66564;42.482;25.548;2023-03-23T05:29:45;10.98;;;6.85;;
77466;SDS011;66564;42.482;25.548;2023-03-23T05:32:14;12.80;;;7.30;;
77466;SDS011;66564;42.482;25.548;2023-03-23T05:34:40;11.30;;;6.05;;
77466;SDS011;66564;42.482;25.548;2023-03-23T05:37:07;12.90;;;6.78;;
77466;SDS011;66564;42.482;25.548;2023-03-23T05:39:34;11.07;;;6.30;;
77466;SDS011;66564;42.482;25.548;2023-03-23T05:42:01;9.15;;;6.05;;
77466;SDS011;66564;42.482;25.548;2023-03-23T05:44:27;10.73;;;6.63;;
77466;SDS011;66564;42.482;25.548;2023-03-23T05:46:54;10.55;;;5.95;;
77466;SDS011;66564;42.482;25.548;2023-03-23T05:49:19;10.52;;;5.85;;
77466;SDS011;66564;42.482;25.548;2023-03-23T05:51:45;8.32;;;5.47;;
77466;SDS011;66564;42.482;25.548;2023-03-23T05:54:11;9.15;;;5.47;;
77466;SDS011;66564;42.482;25.548;2023-03-23T05:56:38;12.35;;;5.93;;
77466;SDS011;66564;42.482;25.548;2023-03-23T05:59:03;9.00;;;5.60;;
77466;SDS011;66564;42.482;25.548;2023-03-23T06:01:29;10.35;;;6.43;;
77466;SDS011;66564;42.482;25.548;2023-03-23T06:03:56;9.38;;;6.18;;
77466;SDS011;66564;42.482;25.548;2023-03-23T06:06:27;10.90;;;7.68;;
77466;SDS011;66564;42.482;25.548;2023-03-23T06:08:55;11.48;;;6.32;;
77466;SDS011;66564;42.482;25.548;2023-03-23T06:11:22;15.35;;;8.18;;
77466;SDS011;66564;42.482;25.548;2023-03-23T06:13:49;12.60;;;7.85;;
77466;SDS011;66564;42.482;25.548;2023-03-23T06:16:15;13.20;;;7.80;;
77466;SDS011;66564;42.482;25.548;2023-03-23T06:18:43;15.05;;;8.77;;
77466;SDS011;66564;42.482;25.548;2023-03-23T06:21:09;16.15;;;9.98;;
77466;SDS011;66564;42.482;25.548;2023-03-23T06:23:35;13.45;;;8.30;;
77466;SDS011;66564;42.482;25.548;2023-03-23T06:26:04;14.98;;;9.02;;
77466;SDS011;66564;42.482;25.548;2023-03-23T06:28:33;15.13;;;7.82;;
77466;SDS011;66564;42.482;25.548;2023-03-23T06:30:59;12.80;;;7.40;;
77466;SDS011;66564;42.482;25.548;2023-03-23T06:33:31;13.23;;;7.93;;
77466;SDS011;66564;42.482;25.548;2023-03-23T06:35:57;10.63;;;6.65;;
77466;SDS011;66564;42.482;25.548;2023-03-23T06:38:23;14.27;;;7.45;;
77466;SDS011;66564;42.482;25.548;2023-03-23T06:40:51;16.02;;;7.88;;
77466;SDS011;66564;42.482;25.548;2023-03-23T06:43:19;14.00;;;6.88;;
77466;SDS011;66564;42.482;25.548;2023-03-23T06:45:45;12.00;;;6.75;;
77466;SDS011;66564;42.482;25.548;2023-03-23T06:48:10;9.50;;;6.10;;
77466;SDS011;66564;42.482;25.548;2023-03-23T06:50:37;10.27;;;6.15;;
77466;SDS011;66564;42.482;25.548;2023-03-23T06:53:03;10.40;;;6.65;;
77466;SDS011;66564;42.482;25.548;2023-03-23T06:55:28;12.05;;;6.50;;
77466;SDS011;66564;42.482;25.548;2023-03-23T06:57:54;9.40;;;6.03;;
77466;SDS011;66564;42.482;25.548;2023-03-23T07:00:20;8.50;;;5.40;;
77466;SDS011;66564;42.482;25.548;2023-03-23T07:02:45;7.50;;;4.75;;
77466;SDS011;66564;42.482;25.548;2023-03-23T07:05:11;8.25;;;4.63;;
77466;SDS011;66564;42.482;25.548;2023-03-23T07:07:38;7.40;;;4.53;;
77466;SDS011;66564;42.482;25.548;2023-03-23T07:10:05;7.25;;;4.65;;
77466;SDS011;66564;42.482;25.548;2023-03-23T07:12:31;6.80;;;4.55;;
77466;SDS011;66564;42.482;25.548;2023-03-23T07:14:58;7.65;;;3.67;;
77466;SDS011;66564;42.482;25.548;2023-03-23T07:17:23;4.60;;;3.20;;
77466;SDS011;66564;42.482;25.548;2023-03-23T07:19:49;6.05;;;3.40;;
77466;SDS011;66564;42.482;25.548;2023-03-23T07:22:14;5.60;;;3.58;;
77466;SDS011;66564;42.482;25.548;2023-03-23T07:24:40;7.97;;;4.05;;
77466;SDS011;66564;42.482;25.548;2023-03-23T07:27:06;4.38;;;3.38;;
77466;SDS011;66564;42.482;25.548;2023-03-23T07:29:32;5.82;;;3.67;;
77466;SDS011;66564;42.482;25.548;2023-03-23T07:32:00;5.07;;;3.10;;
77466;SDS011;66564;42.482;25.548;2023-03-23T07:34:26;4.05;;;2.95;;
77466;SDS011;66564;42.482;25.548;2023-03-23T07:36:53;5.05;;;3.45;;
77466;SDS011;66564;42.482;25.548;2023-03-23T07:39:18;6.20;;;4.00;;
77466;SDS011;66564;42.482;25.548;2023-03-23T07:41:44;5.10;;;3.63;;
77466;SDS011;66564;42.482;25.548;2023-03-23T07:44:09;4.38;;;2.95;;
77466;SDS011;66564;42.482;25.548;2023-03-23T07:46:35;5.60;;;3.70;;
77466;SDS011;66564;42.482;25.548;2023-03-23T07:49:01;6.10;;;3.38;;
77466;SDS011;66564;42.482;25.548;2023-03-23T07:51:30;5.38;;;3.75;;
77466;SDS011;66564;42.482;25.548;2023-03-23T07:53:56;4.38;;;3.10;;
77466;SDS011;66564;42.482;25.548;2023-03-23T07:56:22;5.32;;;3.30;;
77466;SDS011;66564;42.482;25.548;2023-03-23T07:58:48;4.75;;;3.33;;
77466;SDS011;66564;42.482;25.548;2023-03-23T08:01:14;5.72;;;3.67;;
77466;SDS011;66564;42.482;25.548;2023-03-23T08:03:40;4.15;;;2.92;;
77466;SDS011;66564;42.482;25.548;2023-03-23T08:06:07;5.70;;;2.83;;
77466;SDS011;66564;42.482;25.548;2023-03-23T08:08:33;4.00;;;2.85;;
77466;SDS011;66564;42.482;25.548;2023-03-23T08:10:59;4.25;;;2.83;;
77466;SDS011;66564;42.482;25.548;2023-03-23T08:13:25;4.85;;;3.10;;
77466;SDS011;66564;42.482;25.548;2023-03-23T08:15:50;5.28;;;3.35;;
77466;SDS011;66564;42.482;25.548;2023-03-23T08:18:16;5.88;;;3.60;;
77466;SDS011;66564;42.482;25.548;2023-03-23T08:20:42;4.43;;;3.35;;
77466;SDS011;66564;42.482;25.548;2023-03-23T08:23:09;4.88;;;3.17;;
77466;SDS011;66564;42.482;25.548;2023-03-23T08:25:36;6.57;;;3.50;;
77466;SDS011;66564;42.482;25.548;2023-03-23T08:28:02;7.60;;;3.78;;
77466;SDS011;66564;42.482;25.548;2023-03-23T08:30:29;5.10;;;3.42;;
77466;SDS011;66564;42.482;25.548;2023-03-23T08:32:58;4.88;;;3.35;;
77466;SDS011;66564;42.482;25.548;2023-03-23T08:35:26;5.18;;;3.00;;
77466;SDS011;66564;42.482;25.548;2023-03-23T08:37:53;4.60;;;3.30;;
77466;SDS011;66564;42.482;25.548;2023-03-23T08:40:20;7.18;;;3.35;;
77466;SDS011;66564;42.482;25.548;2023-03-23T08:42:48;4.35;;;3.10;;
77466;SDS011;66564;42.482;25.548;2023-03-23T08:45:16;6.55;;;4.03;;
77466;SDS011;66564;42.482;25.548;2023-03-23T08:47:43;5.30;;;3.90;;
77466;SDS011;66564;42.482;25.548;2023-03-23T08:50:13;6.47;;;4.50;;
77466;SDS011;66564;42.482;25.548;2023-03-23T08:52:40;7.22;;;4.15;;
77466;SDS011;66564;42.482;25.548;2023-03-23T08:55:07;5.82;;;3.88;;
77466;SDS011;66564;42.482;25.548;2023-03-23T08:57:33;6.88;;;4.57;;
77466;SDS011;66564;42.482;25.548;2023-03-23T09:00:01;6.22;;;4.30;;
77466;SDS011;66564;42.482;25.548;2023-03-23T09:02:38;6.85;;;4.20;;
77466;SDS011;66564;42.482;25.548;2023-03-23T09:05:04;6.10;;;4.00;;
77466;SDS011;66564;42.482;25.548;2023-03-23T09:07:30;5.88;;;4.25;;
77466;SDS011;66564;42.482;25.548;2023-03-23T09:09:55;7.03;;;4.72;;
77466;SDS011;66564;42.482;25.548;2023-03-23T09:12:21;6.00;;;4.25;;
77466;SDS011;66564;42.482;25.548;2023-03-23T09:14:46;7.70;;;4.35;;
77466;SDS011;66564;42.482;25.548;2023-03-23T09:17:12;6.53;;;4.60;;
77466;SDS011;66564;42.482;25.548;2023-03-23T09:19:37;5.35;;;3.92;;
77466;SDS011;66564;42.482;25.548;2023-03-23T09:22:03;5.63;;;4.40;;
77466;SDS011;66564;42.482;25.548;2023-03-23T09:24:30;8.90;;;4.43;;
77466;SDS011;66564;42.482;25.548;2023-03-23T09:26:56;7.22;;;4.85;;
77466;SDS011;66564;42.482;25.548;2023-03-23T09:29:24;7.28;;;4.68;;
77466;SDS011;66564;42.482;25.548;2023-03-23T09:31:50;5.78;;;4.32;;
77466;SDS011;66564;42.482;25.548;2023-03-23T09:34:16;5.70;;;4.10;;
77466;SDS011;66564;42.482;25.548;2023-03-23T09:36:42;6.90;;;4.32;;
77466;SDS011;66564;42.482;25.548;2023-03-23T09:39:08;6.20;;;4.40;;
77466;SDS011;66564;42.482;25.548;2023-03-23T09:52:11;6.95;;;4.88;;
77466;SDS011;66564;42.482;25.548;2023-03-23T09:57:11;7.57;;;5.22;;
77466;SDS011;66564;42.482;25.548;2023-03-23T09:59:49;8.02;;;5.22;;
77466;SDS011;66564;42.482;25.548;2023-03-23T10:02:30;8.35;;;5.85;;
77466;SDS011;66564;42.482;25.548;2023-03-23T10:07:48;11.82;;;7.43;;
77466;SDS011;66564;42.482;25.548;2023-03-23T10:10:14;11.15;;;7.38;;
77466;SDS011;66564;42.482;25.548;2023-03-23T10:15:21;9.77;;;6.57;;
77466;SDS011;66564;42.482;25.548;2023-03-23T10:17:57;10.55;;;6.90;;
77466;SDS011;66564;42.482;25.548;2023-03-23T10:23:31;11.07;;;7.72;;
77466;SDS011;66564;42.482;25.548;2023-03-23T10:31:17;12.10;;;7.28;;
77466;SDS011;66564;42.482;25.548;2023-03-23T10:33:49;11.60;;;8.23;;
77466;SDS011;66564;42.482;25.548;2023-03-23T10:36:31;13.02;;;8.18;;
77466;SDS011;66564;42.482;25.548;2023-03-23T10:41:37;10.65;;;7.47;;
77466;SDS011;66564;42.482;25.548;2023-03-23T10:44:15;11.10;;;7.53;;
77466;SDS011;66564;42.482;25.548;2023-03-23T10:46:47;11.43;;;7.22;;
77466;SDS011;66564;42.482;25.548;2023-03-23T10:49:41;12.52;;;8.13;;
77466;SDS011;66564;42.482;25.548;2023-03-23T10:55:02;15.32;;;9.20;;
77466;SDS011;66564;42.482;25.548;2023-03-23T10:57:32;15.23;;;10.10;;
77466;SDS011;66564;42.482;25.548;2023-03-23T11:02:45;13.30;;;7.88;;
77466;SDS011;66564;42.482;25.548;2023-03-23T11:05:20;13.48;;;8.73;;
77466;SDS011;66564;42.482;25.548;2023-03-23T11:07:54;14.90;;;9.15;;
77466;SDS011;66564;42.482;25.548;2023-03-23T11:13:00;14.57;;;8.77;;
77466;SDS011;66564;42.482;25.548;2023-03-23T11:15:36;11.82;;;8.15;;
77466;SDS011;66564;42.482;25.548;2023-03-23T11:18:26;11.82;;;7.95;;
77466;SDS011;66564;42.482;25.548;2023-03-23T11:20:56;13.20;;;7.70;;
77466;SDS011;66564;42.482;25.548;2023-03-23T11:23:24;12.23;;;8.07;;
77466;SDS011;66564;42.482;25.548;2023-03-23T11:28:43;10.30;;;6.80;;
77466;SDS011;66564;42.482;25.548;2023-03-23T11:31:30;14.80;;;8.50;;
77466;SDS011;66564;42.482;25.548;2023-03-23T11:34:04;10.18;;;7.50;;
77466;SDS011;66564;42.482;25.548;2023-03-23T11:36:36;12.20;;;7.57;;
77466;SDS011;66564;42.482;25.548;2023-03-23T11:41:55;11.98;;;8.23;;
77466;SDS011;66564;42.482;25.548;2023-03-23T11:44:24;13.52;;;7.75;;
77466;SDS011;66564;42.482;25.548;2023-03-23T11:47:01;10.27;;;7.55;;
77466;SDS011;66564;42.482;25.548;2023-03-23T11:49:39;14.13;;;8.18;;
77466;SDS011;66564;42.482;25.548;2023-03-23T11:52:27;11.07;;;7.40;;
77466;SDS011;66564;42.482;25.548;2023-03-23T11:55:14;9.75;;;7.45;;
77466;SDS011;66564;42.482;25.548;2023-03-23T11:57:44;12.65;;;8.00;;
77466;SDS011;66564;42.482;25.548;2023-03-23T12:05:52;12.48;;;7.03;;
77466;SDS011;66564;42.482;25.548;2023-03-23T12:16:30;12.35;;;7.35;;
77466;SDS011;66564;42.482;25.548;2023-03-23T12:19:06;9.85;;;6.95;;
77466;SDS011;66564;42.482;25.548;2023-03-23T12:22:04;12.07;;;8.18;;
77466;SDS011;66564;42.482;25.548;2023-03-23T12:32:35;11.15;;;7.88;;
77466;SDS011;66564;42.482;25.548;2023-03-23T12:40:55;13.30;;;9.00;;
77466;SDS011;66564;42.482;25.548;2023-03-23T12:46:22;12.23;;;8.95;;
77466;SDS011;66564;42.482;25.548;2023-03-23T12:51:54;12.73;;;8.65;;
77466;SDS011;66564;42.482;25.548;2023-03-23T12:59:59;11.30;;;7.22;;
77466;SDS011;66564;42.482;25.548;2023-03-23T13:02:32;12.48;;;8.00;;
77466;SDS011;66564;42.482;25.548;2023-03-23T13:07:49;12.13;;;7.32;;
77466;SDS011;66564;42.482;25.548;2023-03-23T13:10:22;9.75;;;7.05;;
77466;SDS011;66564;42.482;25.548;2023-03-23T13:12:52;11.80;;;7.30;;
77466;SDS011;66564;42.482;25.548;2023-03-23T13:15:21;10.63;;;7.20;;
77466;SDS011;66564;42.482;25.548;2023-03-23T13:18:25;10.05;;;7.00;;
77466;SDS011;66564;42.482;25.548;2023-03-23T13:23:53;12.77;;;7.13;;
77466;SDS011;66564;42.482;25.548;2023-03-23T13:26:23;11.95;;;7.90;;
77466;SDS011;66564;42.482;25.548;2023-03-23T13:31:31;11.10;;;7.50;;
77466;SDS011;66564;42.482;25.548;2023-03-23T13:34:04;13.68;;;8.82;;
77466;SDS011;66564;42.482;25.548;2023-03-23T13:36:42;12.73;;;7.68;;
77466;SDS011;66564;42.482;25.548;2023-03-23T13:42:03;16.50;;;8.38;;
77466;SDS011;66564;42.482;25.548;2023-03-23T13:44:54;16.17;;;7.18;;
77466;SDS011;66564;42.482;25.548;2023-03-23T13:50:01;12.85;;;7.95;;
77466;SDS011;66564;42.482;25.548;2023-03-23T14:05:50;10.95;;;7.30;;
77466;SDS011;66564;42.482;25.548;2023-03-23T14:16:04;9.18;;;6.47;;
77466;SDS011;66564;42.482;25.548;2023-03-23T14:18:40;8.27;;;6.13;;
77466;SDS011;66564;42.482;25.548;2023-03-23T14:21:14;10.95;;;6.40;;
77466;SDS011;66564;42.482;25.548;2023-03-23T14:23:41;10.45;;;7.13;;
77466;SDS011;66564;42.482;25.548;2023-03-23T14:26:11;10.07;;;7.20;;
77466;SDS011;66564;42.482;25.548;2023-03-23T14:28:42;12.90;;;6.40;;
77466;SDS011;66564;42.482;25.548;2023-03-23T14:31:14;12.27;;;7.90;;
77466;SDS011;66564;42.482;25.548;2023-03-23T14:33:46;10.50;;;7.47;;
77466;SDS011;66564;42.482;25.548;2023-03-23T14:36:13;11.43;;;7.72;;
77466;SDS011;66564;42.482;25.548;2023-03-23T14:38:40;13.98;;;7.20;;
77466;SDS011;66564;42.482;25.548;2023-03-23T14:41:05;11.43;;;7.18;;
77466;SDS011;66564;42.482;25.548;2023-03-23T14:43:32;13.48;;;8.32;;
77466;SDS011;66564;42.482;25.548;2023-03-23T14:46:00;10.57;;;7.28;;
77466;SDS011;66564;42.482;25.548;2023-03-23T14:48:27;9.63;;;6.63;;
77466;SDS011;66564;42.482;25.548;2023-03-23T14:51:00;9.48;;;6.65;;
77466;SDS011;66564;42.482;25.548;2023-03-23T14:53:37;12.60;;;7.85;;
77466;SDS011;66564;42.482;25.548;2023-03-23T14:56:09;12.65;;;8.10;;
77466;SDS011;66564;42.482;25.548;2023-03-23T14:58:43;15.13;;;9.77;;
77466;SDS011;66564;42.482;25.548;2023-03-23T15:01:10;12.05;;;8.48;;
77466;SDS011;66564;42.482;25.548;2023-03-23T15:03:42;11.73;;;8.48;;
77466;SDS011;66564;42.482;25.548;2023-03-23T15:06:17;11.30;;;8.23;;
77466;SDS011;66564;42.482;25.548;2023-03-23T15:08:46;13.52;;;8.40;;
77466;SDS011;66564;42.482;25.548;2023-03-23T15:13:50;16.58;;;8.32;;
77466;SDS011;66564;42.482;25.548;2023-03-23T15:18:49;14.50;;;7.80;;
77466;SDS011;66564;42.482;25.548;2023-03-23T15:21:30;10.55;;;7.78;;
77466;SDS011;66564;42.482;25.548;2023-03-23T15:23:59;11.32;;;7.47;;
77466;SDS011;66564;42.482;25.548;2023-03-23T15:29:09;12.35;;;8.18;;
77466;SDS011;66564;42.482;25.548;2023-03-23T15:31:46;11.65;;;7.57;;
77466;SDS011;66564;42.482;25.548;2023-03-23T15:34:18;10.23;;;7.55;;
77466;SDS011;66564;42.482;25.548;2023-03-23T15:36:54;12.25;;;8.05;;
77466;SDS011;66564;42.482;25.548;2023-03-23T15:39:27;11.93;;;7.40;;
77466;SDS011;66564;42.482;25.548;2023-03-23T15:41:54;15.68;;;8.13;;
77466;SDS011;66564;42.482;25.548;2023-03-23T15:47:01;13.93;;;7.78;;
77466;SDS011;66564;42.482;25.548;2023-03-23T15:49:47;12.45;;;7.32;;
77466;SDS011;66564;42.482;25.548;2023-03-23T15:52:24;11.90;;;7.60;;
77466;SDS011;66564;42.482;25.548;2023-03-23T15:54:50;13.20;;;7.35;;
77466;SDS011;66564;42.482;25.548;2023-03-23T15:57:15;11.20;;;7.00;;
77466;SDS011;66564;42.482;25.548;2023-03-23T15:59:41;12.50;;;7.03;;
77466;SDS011;66564;42.482;25.548;2023-03-23T16:02:09;9.95;;;7.10;;
77466;SDS011;66564;42.482;25.548;2023-03-23T16:04:43;10.93;;;6.93;;
77466;SDS011;66564;42.482;25.548;2023-03-23T16:07:08;10.63;;;6.47;;
77466;SDS011;66564;42.482;25.548;2023-03-23T16:09:37;9.32;;;6.72;;
77466;SDS011;66564;42.482;25.548;2023-03-23T16:12:09;16.50;;;7.65;;
77466;SDS011;66564;42.482;25.548;2023-03-23T16:14:37;11.18;;;6.78;;
77466;SDS011;66564;42.482;25.548;2023-03-23T16:17:02;12.48;;;7.07;;
77466;SDS011;66564;42.482;25.548;2023-03-23T16:19:28;12.95;;;7.43;;
77466;SDS011;66564;42.482;25.548;2023-03-23T16:21:53;21.35;;;7.85;;
77466;SDS011;66564;42.482;25.548;2023-03-23T16:24:19;14.85;;;8.10;;
77466;SDS011;66564;42.482;25.548;2023-03-23T16:26:44;10.80;;;7.22;;
77466;SDS011;66564;42.482;25.548;2023-03-23T16:29:11;10.45;;;7.57;;
77466;SDS011;66564;42.482;25.548;2023-03-23T16:31:38;10.98;;;6.90;;
77466;SDS011;66564;42.482;25.548;2023-03-23T16:34:05;10.68;;;7.40;;
77466;SDS011;66564;42.482;25.548;2023-03-23T16:36:33;9.15;;;7.10;;
77466;SDS011;66564;42.482;25.548;2023-03-23T16:38:59;12.90;;;8.52;;
77466;SDS011;66564;42.482;25.548;2023-03-23T16:41:24;16.40;;;8.60;;
77466;SDS011;66564;42.482;25.548;2023-03-23T16:43:50;11.95;;;7.88;;
77466;SDS011;66564;42.482;25.548;2023-03-23T16:46:16;11.68;;;7.43;;
77466;SDS011;66564;42.482;25.548;2023-03-23T16:48:41;12.48;;;8.18;;
77466;SDS011;66564;42.482;25.548;2023-03-23T16:51:07;12.07;;;7.97;;
77466;SDS011;66564;42.482;25.548;2023-03-23T16:53:34;11.57;;;8.02;;
77466;SDS011;66564;42.482;25.548;2023-03-23T16:56:01;11.57;;;7.68;;
77466;SDS011;66564;42.482;25.548;2023-03-23T16:58:26;12.00;;;7.72;;
77466;SDS011;66564;42.482;25.548;2023-03-23T17:00:52;11.00;;;7.60;;
77466;SDS011;66564;42.482;25.548;2023-03-23T17:03:18;12.73;;;7.70;;
77466;SDS011;66564;42.482;25.548;2023-03-23T17:05:46;17.60;;;7.57;;
77466;SDS011;66564;42.482;25.548;2023-03-23T17:08:16;11.48;;;7.00;;
77466;SDS011;66564;42.482;25.548;2023-03-23T17:10:42;10.05;;;6.45;;